createdAt,value
2018-06-02T00:01:52.109Z,15.30
2018-06-02T00:04:20.242Z,15.40
2018-06-02T00:06:51.531Z,15.30
2018-06-02T00:09:19.647Z,15.40
2018-06-02T00:11:47.765Z,15.30
2018-06-02T00:14:16.777Z,15.40
2018-06-02T00:16:45.926Z,15.30
2018-06-02T00:19:15.608Z,15.30
2018-06-02T00:21:43.706Z,15.30
2018-06-02T00:24:12.844Z,15.30
2018-06-02T00:26:43.099Z,15.30
2018-06-02T00:29:11.990Z,15.20
2018-06-02T00:31:40.099Z,15.30
2018-06-02T00:34:08.251Z,15.30
2018-06-02T00:36:36.415Z,15.20
2018-06-02T00:39:04.861Z,15.20
2018-06-02T00:41:32.979Z,15.10
2018-06-02T00:44:01.154Z,15.10
2018-06-02T00:46:30.401Z,15.10
2018-06-02T00:48:58.518Z,15.10
2018-06-02T00:51:26.647Z,15.20
2018-06-02T00:53:57.189Z,15.00
2018-06-02T00:56:25.326Z,15.00
2018-06-02T00:58:53.424Z,14.90
2018-06-02T01:01:21.548Z,14.80
2018-06-02T01:03:49.671Z,14.80
2018-06-02T01:06:18.724Z,14.70
2018-06-02T01:08:46.845Z,14.60
2018-06-02T01:11:15.754Z,14.60
2018-06-02T01:13:43.907Z,14.70
2018-06-02T01:16:15.956Z,14.60
2018-06-02T01:18:44.090Z,14.70
2018-06-02T01:21:12.440Z,14.70
2018-06-02T01:23:41.524Z,14.70
2018-06-02T01:26:11.372Z,14.60
2018-06-02T01:28:39.480Z,14.50
2018-06-02T01:31:08.408Z,14.50
2018-06-02T01:33:36.524Z,14.50
2018-06-02T01:36:04.716Z,14.50
2018-06-02T01:38:34.041Z,14.30
2018-06-02T01:41:03.911Z,14.30
2018-06-02T01:43:35.312Z,14.20
2018-06-02T01:46:05.335Z,14.30
2018-06-02T01:48:33.496Z,14.30
2018-06-02T01:51:01.610Z,14.30
2018-06-02T01:53:29.734Z,14.30
2018-06-02T01:55:58.575Z,14.30
2018-06-02T01:58:26.908Z,14.30
2018-06-02T02:00:55.013Z,14.20
2018-06-02T02:03:23.133Z,14.30
2018-06-02T02:05:51.256Z,14.20
2018-06-02T02:08:19.379Z,14.20
2018-06-02T02:10:47.868Z,14.10
2018-06-02T02:13:15.994Z,14.20
2018-06-02T02:15:44.322Z,14.10
2018-06-02T02:18:12.441Z,14.10
2018-06-02T02:20:40.593Z,14.10
2018-06-02T02:23:08.706Z,14.10
2018-06-02T02:25:37.475Z,14.10
2018-06-02T02:28:06.084Z,14.10
2018-06-02T02:30:34.807Z,14.10
2018-06-02T02:33:02.944Z,14.10
2018-06-02T02:35:33.419Z,14.10
2018-06-02T02:38:01.867Z,14.10
2018-06-02T02:40:30.375Z,14.10
2018-06-02T02:42:58.489Z,14.10
2018-06-02T02:45:26.607Z,14.00
2018-06-02T02:48:01.168Z,13.90
2018-06-02T02:50:29.282Z,13.90
2018-06-02T02:52:57.435Z,13.90
2018-06-02T02:55:25.543Z,13.90
2018-06-02T02:57:58.899Z,14.00
2018-06-02T03:00:28.015Z,14.00
2018-06-02T03:02:56.188Z,13.90
2018-06-02T03:05:24.605Z,13.90
2018-06-02T03:07:54.055Z,13.90
2018-06-02T03:10:22.169Z,13.90
2018-06-02T03:12:50.284Z,13.80
2018-06-02T03:15:18.801Z,13.90
2018-06-02T03:17:47.395Z,13.90
2018-06-02T03:20:16.340Z,13.90
2018-06-02T03:22:44.445Z,14.00
2018-06-02T03:25:12.558Z,14.00
2018-06-02T03:27:41.491Z,13.90
2018-06-02T03:30:10.004Z,13.90
2018-06-02T03:32:38.117Z,13.90
2018-06-02T03:35:07.356Z,13.90
2018-06-02T03:37:38.712Z,13.90
2018-06-02T03:40:07.788Z,13.90
2018-06-02T03:42:36.875Z,13.90
2018-06-02T03:45:05.321Z,13.80
2018-06-02T03:47:35.366Z,13.80
2018-06-02T03:50:03.467Z,13.90
2018-06-02T03:52:32.387Z,13.90
2018-06-02T03:55:01.264Z,14.00
2018-06-02T03:57:31.702Z,14.10
2018-06-02T04:00:00.584Z,14.20
2018-06-02T04:02:29.430Z,14.20
2018-06-02T04:04:57.550Z,14.20
2018-06-02T04:07:25.794Z,14.30
2018-06-02T04:09:53.899Z,14.30
2018-06-02T04:12:22.063Z,14.30
2018-06-02T04:14:51.981Z,14.40
2018-06-02T04:17:23.002Z,14.40
2018-06-02T04:19:51.263Z,14.50
2018-06-02T04:22:19.340Z,14.50
2018-06-02T04:24:47.445Z,14.60
2018-06-02T04:27:21.313Z,14.70
2018-06-02T04:29:49.437Z,14.70
2018-06-02T04:34:53.898Z,14.90
2018-06-02T04:37:22.163Z,15.00
2018-06-02T04:39:50.271Z,15.10
2018-06-02T04:42:18.461Z,15.20
2018-06-02T04:44:47.588Z,15.30
2018-06-02T04:47:17.921Z,15.40
2018-06-02T04:49:47.899Z,15.50
2018-06-02T04:52:16.642Z,15.50
2018-06-02T04:54:45.716Z,15.60
2018-06-02T04:57:13.848Z,15.70
2018-06-02T04:59:42.008Z,15.80
2018-06-02T05:02:10.304Z,15.80
2018-06-02T05:04:40.786Z,15.90
2018-06-02T05:07:11.228Z,16.00
2018-06-02T05:09:41.013Z,16.10
2018-06-02T05:12:10.811Z,16.20
2018-06-02T05:14:39.687Z,16.30
2018-06-02T05:17:13.137Z,16.30
2018-06-02T05:19:41.279Z,16.40
2018-06-02T05:22:11.204Z,16.40
2018-06-02T05:24:39.308Z,16.50
2018-06-02T05:27:10.719Z,16.50
2018-06-02T05:29:38.810Z,16.60
2018-06-02T05:32:07.780Z,16.60
2018-06-02T05:34:35.894Z,16.70
2018-06-02T05:37:10.439Z,16.80
2018-06-02T05:39:38.873Z,16.90
2018-06-02T05:42:09.052Z,16.90
2018-06-02T05:44:37.591Z,17.00
2018-06-02T05:47:12.008Z,17.10
2018-06-02T05:49:41.130Z,17.20
2018-06-02T05:52:09.247Z,17.20
2018-06-02T05:54:39.132Z,17.30
2018-06-02T05:57:07.335Z,17.30
2018-06-02T05:59:35.877Z,17.40
2018-06-02T06:02:04.861Z,17.50
2018-06-02T06:04:32.976Z,17.60
2018-06-02T06:07:02.076Z,17.60
2018-06-02T06:09:30.187Z,17.70
2018-06-02T06:11:59.768Z,17.80
2018-06-02T06:14:30.075Z,17.80
2018-06-02T06:17:21.638Z,17.90
2018-06-02T06:19:49.760Z,17.90
2018-06-02T06:22:23.458Z,18.00
2018-06-02T06:24:51.570Z,18.10
2018-06-02T06:27:20.832Z,18.10
2018-06-02T06:29:49.397Z,18.20
2018-06-02T06:32:18.234Z,18.20
2018-06-02T06:34:46.327Z,18.30
2018-06-02T06:37:30.037Z,18.30
2018-06-02T06:39:58.259Z,18.40
2018-06-02T06:42:28.562Z,18.50
2018-06-02T06:44:56.683Z,18.50
2018-06-02T06:47:31.101Z,18.60
2018-06-02T06:50:16.004Z,18.60
2018-06-02T06:52:44.166Z,18.70
2018-06-02T06:55:15.586Z,18.80
2018-06-02T06:57:43.797Z,18.90
2018-06-02T07:00:13.173Z,19.00
2018-06-02T07:02:41.300Z,19.00
2018-06-02T07:05:10.270Z,19.10
2018-06-02T07:07:43.023Z,19.20
2018-06-02T07:10:11.127Z,19.30
2018-06-02T07:12:39.449Z,19.40
2018-06-02T07:15:08.035Z,19.60
2018-06-02T07:17:56.007Z,19.80
2018-06-02T07:20:24.122Z,20.00
2018-06-02T07:22:59.176Z,20.20
2018-06-02T07:25:28.166Z,20.50
2018-06-02T07:27:56.293Z,20.70
2018-06-02T07:30:25.390Z,20.80
2018-06-02T07:32:53.513Z,21.10
2018-06-02T07:35:22.219Z,21.30
2018-06-02T07:37:50.403Z,21.40
2018-06-02T07:40:19.242Z,21.30
2018-06-02T07:42:47.934Z,21.30
2018-06-02T07:45:17.205Z,21.30
2018-06-02T07:47:49.932Z,21.30
2018-06-02T07:50:19.284Z,21.30
2018-06-02T07:52:49.132Z,21.30
2018-06-02T07:55:17.295Z,21.40
2018-06-02T07:57:46.874Z,21.50
2018-06-02T08:00:15.002Z,21.50
2018-06-02T08:02:43.116Z,21.70
2018-06-02T08:05:11.686Z,21.70
2018-06-02T08:07:40.627Z,21.80
2018-06-02T08:10:08.808Z,21.90
2018-06-02T08:12:37.480Z,21.90
2018-06-02T08:15:05.585Z,21.90
2018-06-02T08:17:34.727Z,21.90
2018-06-02T08:20:03.615Z,22.10
2018-06-02T08:22:31.737Z,22.30
2018-06-02T08:25:00.202Z,22.30
2018-06-02T08:27:28.413Z,22.30
2018-06-02T08:29:57.864Z,22.50
2018-06-02T08:32:27.309Z,22.70
2018-06-02T08:34:57.947Z,22.90
2018-06-02T08:37:26.076Z,23.10
2018-06-02T08:39:54.177Z,23.20
2018-06-02T08:42:22.292Z,23.60
2018-06-02T08:44:51.363Z,23.60
2018-06-02T08:47:20.834Z,23.40
2018-06-02T08:49:49.103Z,22.90
2018-06-02T08:52:18.627Z,22.80
2018-06-02T08:54:47.743Z,22.70
2018-06-02T08:57:16.989Z,22.60
2018-06-02T08:59:46.093Z,22.60
2018-06-02T09:02:16.100Z,22.60
2018-06-02T09:04:44.199Z,22.60
2018-06-02T09:07:14.057Z,22.70
2018-06-02T09:09:42.917Z,22.80
2018-06-02T09:12:11.430Z,22.80
2018-06-02T09:14:39.548Z,22.80
2018-06-02T09:17:08.603Z,22.90
2018-06-02T09:19:36.805Z,22.80
2018-06-02T09:22:05.674Z,22.60
2018-06-02T09:24:35.157Z,22.70
2018-06-02T09:27:04.199Z,22.80
2018-06-02T09:29:32.317Z,22.80
2018-06-02T09:32:01.445Z,22.90
2018-06-02T09:34:30.583Z,23.10
2018-06-02T09:36:58.796Z,23.20
2018-06-02T09:39:26.922Z,23.30
2018-06-02T09:41:55.116Z,23.30
2018-06-02T09:44:23.326Z,23.40
2018-06-02T09:46:53.605Z,23.60
2018-06-02T09:49:21.720Z,23.50
2018-06-02T09:51:49.849Z,23.50
2018-06-02T09:54:18.181Z,23.20
2018-06-02T09:56:48.819Z,23.30
2018-06-02T09:59:16.932Z,23.50
2018-06-02T10:01:45.043Z,23.30
2018-06-02T10:04:13.193Z,23.20
2018-06-02T10:06:41.399Z,22.90
2018-06-02T10:09:09.527Z,22.60
2018-06-02T10:11:37.919Z,22.60
2018-06-02T10:14:06.027Z,22.70
2018-06-02T10:16:34.135Z,22.60
2018-06-02T10:19:02.275Z,22.60
2018-06-02T10:21:30.388Z,22.70
2018-06-02T10:23:58.497Z,22.80
2018-06-02T10:26:27.229Z,22.80
2018-06-02T10:28:55.831Z,22.90
2018-06-02T10:31:24.687Z,23.00
2018-06-02T10:33:53.583Z,23.10
2018-06-02T10:36:22.583Z,23.20
2018-06-02T10:38:50.932Z,23.20
2018-06-02T10:41:19.043Z,23.50
2018-06-02T10:43:47.179Z,23.60
2018-06-02T10:46:15.456Z,24.20
2018-06-02T10:48:43.562Z,24.20
2018-06-02T10:51:12.005Z,24.80
2018-06-02T10:53:40.120Z,24.80
2018-06-02T10:56:08.434Z,25.20
2018-06-02T10:58:36.541Z,25.30
2018-06-02T11:01:04.654Z,25.30
2018-06-02T11:03:32.771Z,25.20
2018-06-02T11:06:00.896Z,25.20
2018-06-02T11:08:29.018Z,24.90
2018-06-02T11:10:57.122Z,24.60
2018-06-02T11:13:26.032Z,24.20
2018-06-02T11:15:54.162Z,23.90
2018-06-02T11:18:22.271Z,23.70
2018-06-02T11:20:50.388Z,23.50
2018-06-02T11:23:18.517Z,23.50
2018-06-02T11:25:46.666Z,23.60
2018-06-02T11:28:14.761Z,23.80
2018-06-02T11:30:42.861Z,23.80
2018-06-02T11:33:10.995Z,23.60
2018-06-02T11:35:39.887Z,23.30
2018-06-02T11:38:08.777Z,23.10
2018-06-02T11:40:37.642Z,22.80
2018-06-02T11:43:06.175Z,22.80
2018-06-02T11:45:35.062Z,22.80
2018-06-02T11:48:03.201Z,23.00
2018-06-02T11:50:31.312Z,23.40
2018-06-02T11:52:59.446Z,23.50
2018-06-02T11:55:27.548Z,23.60
2018-06-02T11:57:56.715Z,23.60
2018-06-02T12:00:25.598Z,23.50
2018-06-02T12:02:54.482Z,23.40
2018-06-02T12:05:22.994Z,23.40
2018-06-02T12:07:51.947Z,23.50
2018-06-02T12:10:20.457Z,23.60
2018-06-02T12:12:48.954Z,23.70
2018-06-02T12:15:17.162Z,23.90
2018-06-02T12:17:45.366Z,24.20
2018-06-02T12:20:13.485Z,24.60
2018-06-02T12:22:41.606Z,25.00
2018-06-02T12:25:09.707Z,25.00
2018-06-02T12:27:38.699Z,25.60
2018-06-02T12:30:06.790Z,25.40
2018-06-02T12:32:34.950Z,25.40
2018-06-02T12:35:03.103Z,25.40
2018-06-02T12:37:34.663Z,25.50
2018-06-02T12:40:02.787Z,25.50
2018-06-02T12:42:30.983Z,25.40
2018-06-02T12:44:59.113Z,25.30
2018-06-02T12:47:30.938Z,25.30
2018-06-02T12:49:59.084Z,25.00
2018-06-02T12:52:27.167Z,25.00
2018-06-02T12:54:55.310Z,25.00
2018-06-02T12:57:27.539Z,25.30
2018-06-02T13:00:00.923Z,25.30
2018-06-02T13:02:29.161Z,25.80
2018-06-02T13:04:58.307Z,25.70
2018-06-02T13:07:27.386Z,25.80
2018-06-02T13:09:55.510Z,26.40
2018-06-02T13:12:23.607Z,26.90
2018-06-02T13:14:51.718Z,27.20
2018-06-02T13:17:21.152Z,27.70
2018-06-02T13:19:50.010Z,27.50
2018-06-02T13:22:18.131Z,27.90
2018-06-02T13:24:46.998Z,27.70
2018-06-02T13:27:19.120Z,27.60
2018-06-02T13:29:47.230Z,27.40
2018-06-02T13:32:16.686Z,27.30
2018-06-02T13:34:44.837Z,28.10
2018-06-02T13:37:13.088Z,28.90
2018-06-02T13:39:41.180Z,28.90
2018-06-02T13:42:09.405Z,28.40
2018-06-02T13:44:38.273Z,28.10
2018-06-02T13:47:09.700Z,27.80
2018-06-02T13:49:38.812Z,29.00
2018-06-02T13:52:06.916Z,31.00
2018-06-02T13:54:35.034Z,33.20
2018-06-02T13:57:05.609Z,34.50
2018-06-02T13:59:33.707Z,35.40
2018-06-02T14:02:01.847Z,34.90
2018-06-02T14:04:29.969Z,34.20
2018-06-02T14:06:58.955Z,34.00
2018-06-02T14:09:27.059Z,35.30
2018-06-02T14:11:55.179Z,35.40
2018-06-02T14:14:23.288Z,36.10
2018-06-02T14:16:51.537Z,37.20
2018-06-02T14:19:19.643Z,38.20
2018-06-02T14:21:48.510Z,36.90
2018-06-02T14:24:17.400Z,35.50
2018-06-02T14:26:45.562Z,35.10
2018-06-02T14:29:14.135Z,34.90
2018-06-02T14:31:42.259Z,34.50
2018-06-02T14:34:10.368Z,34.30
2018-06-02T14:36:38.710Z,34.50
2018-06-02T14:39:06.887Z,35.20
2018-06-02T14:41:35.607Z,35.90
2018-06-02T14:44:03.718Z,36.10
2018-06-02T14:46:32.032Z,36.60
2018-06-02T14:49:00.897Z,35.70
2018-06-02T14:51:29.122Z,34.30
2018-06-02T14:53:57.470Z,32.40
2018-06-02T14:56:25.697Z,31.20
2018-06-02T14:58:54.211Z,30.30
2018-06-02T15:01:22.322Z,30.10
2018-06-02T15:03:51.361Z,30.30
2018-06-02T15:06:19.685Z,33.90
2018-06-02T15:08:47.786Z,34.20
2018-06-02T15:11:15.918Z,34.40
2018-06-02T15:13:44.014Z,35.10
2018-06-02T15:16:12.130Z,35.20
2018-06-02T15:18:40.292Z,36.60
2018-06-02T15:21:08.459Z,36.90
2018-06-02T15:23:36.872Z,36.90
2018-06-02T15:26:05.831Z,36.70
2018-06-02T15:28:33.935Z,37.60
2018-06-02T15:31:03.587Z,37.70
2018-06-02T15:33:31.736Z,37.60
2018-06-02T15:36:01.740Z,37.70
2018-06-02T15:38:30.614Z,36.80
2018-06-02T15:40:59.556Z,35.60
2018-06-02T15:43:27.755Z,34.50
2018-06-02T15:45:56.627Z,34.60
2018-06-02T15:48:24.725Z,35.90
2018-06-02T15:50:52.844Z,36.50
2018-06-02T15:53:20.958Z,37.10
2018-06-02T15:55:52.221Z,37.30
2018-06-02T15:58:20.314Z,37.40
2018-06-02T16:00:49.207Z,38.00
2018-06-02T16:03:18.076Z,38.30
2018-06-02T16:05:46.193Z,38.20
2018-06-02T16:08:14.418Z,37.30
2018-06-02T16:10:42.527Z,37.50
2018-06-02T16:13:11.400Z,37.50
2018-06-02T16:15:39.499Z,37.20
2018-06-02T16:18:07.989Z,36.80
2018-06-02T16:20:36.245Z,37.10
2018-06-02T16:23:04.588Z,37.30
2018-06-02T16:25:32.678Z,37.30
2018-06-02T16:28:00.923Z,37.20
2018-06-02T16:30:29.039Z,36.80
2018-06-02T16:32:57.904Z,35.10
2018-06-02T16:35:26.023Z,33.30
2018-06-02T16:37:54.256Z,31.80
2018-06-02T16:40:22.364Z,29.70
2018-06-02T16:42:50.491Z,29.10
2018-06-02T16:45:18.610Z,28.70
2018-06-02T16:47:47.975Z,28.20
2018-06-02T16:50:16.920Z,27.80
2018-06-02T16:52:45.010Z,27.00
2018-06-02T16:55:13.126Z,27.10
2018-06-02T16:57:42.355Z,27.40
2018-06-02T17:00:10.456Z,27.70
2018-06-02T17:02:38.577Z,29.90
2018-06-02T17:05:07.452Z,31.10
2018-06-02T17:07:35.607Z,32.10
2018-06-02T17:10:03.725Z,32.40
2018-06-02T17:12:31.852Z,31.40
2018-06-02T17:14:59.966Z,30.50
2018-06-02T17:17:30.230Z,28.60
2018-06-02T17:19:58.349Z,28.00
2018-06-02T17:22:26.447Z,26.80
2018-06-02T17:24:55.215Z,26.30
2018-06-02T17:27:23.591Z,25.80
2018-06-02T17:29:51.693Z,25.40
2018-06-02T17:32:21.317Z,25.10
2018-06-02T17:34:50.453Z,24.70
2018-06-02T17:37:20.634Z,24.60
2018-06-02T17:39:48.768Z,24.50
2018-06-02T17:42:16.899Z,24.40
2018-06-02T17:44:45.066Z,24.40
2018-06-02T17:47:15.209Z,24.50
2018-06-02T17:49:43.656Z,24.60
2018-06-02T17:52:11.828Z,24.90
2018-06-02T17:54:39.954Z,25.00
2018-06-02T17:57:08.911Z,24.80
2018-06-02T17:59:37.079Z,24.70
2018-06-02T18:02:06.233Z,24.50
2018-06-02T18:04:35.065Z,24.40
2018-06-02T18:07:03.262Z,24.40
2018-06-02T18:09:31.852Z,24.20
2018-06-02T18:11:59.953Z,24.20
2018-06-02T18:14:28.063Z,24.10
2018-06-02T18:16:56.857Z,24.00
2018-06-02T18:19:25.040Z,23.80
2018-06-02T18:21:54.038Z,23.90
2018-06-02T18:24:23.712Z,23.90
2018-06-02T18:26:51.965Z,23.90
2018-06-02T18:29:20.100Z,23.90
2018-06-02T18:31:48.735Z,23.80
2018-06-02T18:34:18.501Z,23.70
2018-06-02T18:36:46.663Z,23.70
2018-06-02T18:39:14.786Z,23.70
2018-06-02T18:41:43.671Z,23.60
2018-06-02T18:44:11.792Z,23.50
2018-06-02T18:46:39.983Z,23.40
2018-06-02T18:49:08.914Z,23.30
2018-06-02T18:51:37.062Z,23.20
2018-06-02T18:54:06.294Z,23.30
2018-06-02T18:56:34.540Z,23.20
2018-06-02T18:59:02.660Z,23.20
2018-06-02T19:01:31.909Z,23.20
2018-06-02T19:04:00.571Z,23.00
2018-06-02T19:06:41.570Z,22.90
2018-06-02T19:09:09.833Z,22.80
2018-06-02T19:11:37.956Z,22.80
2018-06-02T19:14:06.090Z,22.80
2018-06-02T19:16:34.295Z,22.70
2018-06-02T19:19:04.013Z,22.60
2018-06-02T19:21:32.493Z,22.40
2018-06-02T19:24:02.025Z,22.10
2018-06-02T19:26:31.732Z,21.80
2018-06-02T19:28:59.937Z,21.60
2018-06-02T19:31:28.480Z,21.50
2018-06-02T19:33:56.995Z,21.40
2018-06-02T19:36:28.741Z,21.20
2018-06-02T19:38:56.858Z,21.10
2018-06-02T19:41:26.758Z,20.90
2018-06-02T19:43:55.676Z,20.80
2018-06-02T19:46:24.918Z,20.80
2018-06-02T19:48:53.024Z,20.80
2018-06-02T19:51:21.246Z,20.80
2018-06-02T19:53:49.367Z,20.70
2018-06-02T19:58:46.959Z,20.70
2018-06-02T20:01:15.273Z,20.70
2018-06-02T20:03:43.378Z,20.50
2018-06-02T20:06:11.512Z,20.40
2018-06-02T20:08:39.639Z,20.30
2018-06-02T20:11:07.759Z,20.20
2018-06-02T20:13:35.905Z,20.00
2018-06-02T20:16:04.143Z,20.00
2018-06-02T20:18:32.268Z,20.00
2018-06-02T20:21:00.431Z,19.90
2018-06-02T20:23:30.493Z,19.90
2018-06-02T20:25:58.712Z,19.80
2018-06-02T20:30:57.515Z,19.70
2018-06-02T20:33:25.644Z,19.50
2018-06-02T20:35:54.635Z,19.50
2018-06-02T20:38:23.031Z,19.50
2018-06-02T20:40:51.981Z,19.40
2018-06-02T20:43:20.800Z,19.40
2018-06-02T20:45:51.369Z,19.30
2018-06-02T20:50:49.779Z,19.30
2018-06-02T20:53:20.404Z,19.10
2018-06-02T20:55:49.905Z,19.10
2018-06-02T20:58:20.701Z,19.10
2018-06-02T21:00:50.289Z,19.10
2018-06-02T21:03:19.549Z,18.90
2018-06-02T21:05:50.028Z,18.90
2018-06-02T21:08:18.404Z,18.70
2018-06-02T21:10:48.054Z,18.50
2018-06-02T21:13:18.653Z,18.40
2018-06-02T21:15:46.808Z,18.30
2018-06-02T21:18:16.483Z,18.30
2018-06-02T21:20:44.613Z,18.30
2018-06-02T21:23:13.330Z,18.40
2018-06-02T21:25:42.576Z,18.40
2018-06-02T21:28:11.528Z,18.40
2018-06-02T21:30:40.482Z,18.10
2018-06-02T21:33:08.695Z,18.00
2018-06-02T21:35:39.787Z,17.80
2018-06-02T21:38:07.959Z,17.70
2018-06-02T21:40:36.982Z,17.50
2018-06-02T21:43:05.163Z,17.40
2018-06-02T21:45:34.092Z,17.30
2018-06-02T21:48:02.746Z,17.30
2018-06-02T21:50:31.616Z,17.30
2018-06-02T21:53:00.157Z,17.40
2018-06-02T21:55:28.307Z,17.40
2018-06-02T21:57:58.764Z,17.50
2018-06-02T22:00:27.745Z,17.50
2018-06-02T22:02:56.695Z,17.40
2018-06-02T22:05:25.850Z,17.20
2018-06-02T22:07:54.091Z,17.10
2018-06-02T22:10:24.547Z,17.10
2018-06-02T22:12:52.674Z,17.00
2018-06-02T22:15:21.680Z,17.00
2018-06-02T22:20:38.171Z,17.00
2018-06-02T22:23:07.395Z,16.90
2018-06-02T22:25:36.256Z,16.80
2018-06-02T22:28:04.516Z,16.70
2018-06-02T22:30:32.635Z,16.80
2018-06-02T22:33:01.333Z,16.90
2018-06-02T22:35:29.456Z,16.90
2018-06-02T22:37:58.587Z,16.90
2018-06-02T22:40:26.714Z,16.80
2018-06-02T22:42:55.581Z,16.80
2018-06-02T22:45:26.158Z,16.80
2018-06-02T22:47:54.362Z,16.80
2018-06-02T22:50:22.721Z,16.90
2018-06-02T22:52:50.841Z,16.80
2018-06-02T22:55:19.902Z,16.70
2018-06-02T22:57:48.323Z,16.70
2018-06-02T23:00:17.704Z,16.60
2018-06-02T23:02:46.597Z,16.50
2018-06-02T23:05:15.612Z,16.50
2018-06-02T23:07:44.827Z,16.40
2018-06-02T23:10:12.941Z,16.40
2018-06-02T23:12:42.534Z,16.60
2018-06-02T23:15:11.776Z,16.60
2018-06-02T23:17:40.016Z,16.60
2018-06-02T23:20:10.473Z,16.70
2018-06-02T23:22:40.276Z,16.90
2018-06-02T23:25:08.409Z,16.90
2018-06-02T23:27:38.598Z,16.80
2018-06-02T23:30:07.347Z,16.70
2018-06-02T23:32:37.060Z,16.70
2018-06-02T23:35:05.631Z,16.50
2018-06-02T23:37:33.831Z,16.50
2018-06-02T23:40:01.963Z,16.50
2018-06-02T23:42:30.071Z,16.40
2018-06-02T23:44:58.191Z,16.30
2018-06-02T23:47:30.615Z,16.10
2018-06-02T23:49:58.777Z,16.10
2018-06-02T23:52:27.840Z,16.00
2018-06-02T23:54:56.379Z,16.00
2018-06-02T23:57:27.078Z,16.00
2018-06-02T23:59:55.219Z,16.00
